sensor_id;sensor_type;location;lat;lon;timestamp;P1;durP1;ratioP1;P2;durP2;ratioP2
19183;SDS011;9724;51.194;6.856;2023-02-20T00:00:53;8.63;;;4.37;;
19183;SDS011;9724;51.194;6.856;2023-02-20T00:03:20;8.73;;;4.20;;
19183;SDS011;9724;51.194;6.856;2023-02-20T00:05:46;7.70;;;4.00;;
19183;SDS011;9724;51.194;6.856;2023-02-20T00:08:12;6.43;;;4.07;;
19183;SDS011;9724;51.194;6.856;2023-02-20T00:10:38;9.07;;;4.83;;
19183;SDS011;9724;51.194;6.856;2023-02-20T00:13:04;5.53;;;4.20;;
19183;SDS011;9724;51.194;6.856;2023-02-20T00:15:31;9.17;;;4.70;;
19183;SDS011;9724;51.194;6.856;2023-02-20T00:17:57;7.13;;;5.07;;
19183;SDS011;9724;51.194;6.856;2023-02-20T00:20:24;8.17;;;5.17;;
19183;SDS011;9724;51.194;6.856;2023-02-20T00:22:51;14.77;;;5.27;;
19183;SDS011;9724;51.194;6.856;2023-02-20T00:25:18;8.33;;;5.23;;
19183;SDS011;9724;51.194;6.856;2023-02-20T00:27:45;9.93;;;5.50;;
19183;SDS011;9724;51.194;6.856;2023-02-20T00:30:13;10.07;;;5.40;;
19183;SDS011;9724;51.194;6.856;2023-02-20T00:32:40;10.03;;;5.40;;
19183;SDS011;9724;51.194;6.856;2023-02-20T00:35:08;11.00;;;5.40;;
19183;SDS011;9724;51.194;6.856;2023-02-20T00:37:35;11.67;;;6.03;;
19183;SDS011;9724;51.194;6.856;2023-02-20T00:40:02;13.10;;;6.20;;
19183;SDS011;9724;51.194;6.856;2023-02-20T00:42:29;9.23;;;5.80;;
19183;SDS011;9724;51.194;6.856;2023-02-20T00:44:55;9.67;;;5.53;;
19183;SDS011;9724;51.194;6.856;2023-02-20T00:47:22;10.20;;;5.70;;
19183;SDS011;9724;51.194;6.856;2023-02-20T00:49:48;8.70;;;5.90;;
19183;SDS011;9724;51.194;6.856;2023-02-20T00:52:14;12.13;;;5.93;;
19183;SDS011;9724;51.194;6.856;2023-02-20T00:54:41;7.80;;;5.57;;
19183;SDS011;9724;51.194;6.856;2023-02-20T00:57:07;10.37;;;5.73;;
19183;SDS011;9724;51.194;6.856;2023-02-20T00:59:33;9.97;;;5.57;;
19183;SDS011;9724;51.194;6.856;2023-02-20T01:01:59;11.87;;;5.80;;
19183;SDS011;9724;51.194;6.856;2023-02-20T01:04:25;8.10;;;5.00;;
19183;SDS011;9724;51.194;6.856;2023-02-20T01:06:52;8.47;;;5.43;;
19183;SDS011;9724;51.194;6.856;2023-02-20T01:09:18;10.43;;;5.57;;
19183;SDS011;9724;51.194;6.856;2023-02-20T01:11:45;9.37;;;5.40;;
19183;SDS011;9724;51.194;6.856;2023-02-20T01:14:11;8.77;;;5.27;;
19183;SDS011;9724;51.194;6.856;2023-02-20T01:16:42;10.57;;;5.30;;
19183;SDS011;9724;51.194;6.856;2023-02-20T01:19:09;9.33;;;5.60;;
19183;SDS011;9724;51.194;6.856;2023-02-20T01:21:35;8.20;;;5.00;;
19183;SDS011;9724;51.194;6.856;2023-02-20T01:24:01;7.73;;;5.23;;
19183;SDS011;9724;51.194;6.856;2023-02-20T01:26:27;7.07;;;5.13;;
19183;SDS011;9724;51.194;6.856;2023-02-20T01:28:54;9.97;;;6.13;;
19183;SDS011;9724;51.194;6.856;2023-02-20T01:31:21;9.77;;;6.07;;
19183;SDS011;9724;51.194;6.856;2023-02-20T01:33:47;10.63;;;6.07;;
19183;SDS011;9724;51.194;6.856;2023-02-20T01:36:13;10.73;;;6.00;;
19183;SDS011;9724;51.194;6.856;2023-02-20T01:38:40;9.33;;;6.13;;
19183;SDS011;9724;51.194;6.856;2023-02-20T01:41:06;9.57;;;5.53;;
19183;SDS011;9724;51.194;6.856;2023-02-20T01:43:33;11.77;;;6.60;;
19183;SDS011;9724;51.194;6.856;2023-02-20T01:49:00;11.57;;;6.70;;
19183;SDS011;9724;51.194;6.856;2023-02-20T01:51:28;20.27;;;6.73;;
19183;SDS011;9724;51.194;6.856;2023-02-20T01:53:58;20.57;;;7.57;;
19183;SDS011;9724;51.194;6.856;2023-02-20T01:56:24;12.93;;;7.80;;
19183;SDS011;9724;51.194;6.856;2023-02-20T01:58:50;12.60;;;7.73;;
19183;SDS011;9724;51.194;6.856;2023-02-20T02:01:16;14.93;;;7.73;;
19183;SDS011;9724;51.194;6.856;2023-02-20T02:03:43;11.57;;;7.17;;
19183;SDS011;9724;51.194;6.856;2023-02-20T02:06:13;13.97;;;7.77;;
19183;SDS011;9724;51.194;6.856;2023-02-20T02:08:40;14.67;;;7.83;;
19183;SDS011;9724;51.194;6.856;2023-02-20T02:11:08;14.10;;;7.10;;
19183;SDS011;9724;51.194;6.856;2023-02-20T02:13:36;12.60;;;8.03;;
19183;SDS011;9724;51.194;6.856;2023-02-20T02:16:05;15.00;;;7.47;;
19183;SDS011;9724;51.194;6.856;2023-02-20T02:18:39;15.00;;;8.30;;
19183;SDS011;9724;51.194;6.856;2023-02-20T02:24:15;22.90;;;8.17;;
19183;SDS011;9724;51.194;6.856;2023-02-20T02:30:09;17.03;;;7.70;;
19183;SDS011;9724;51.194;6.856;2023-02-20T02:35:31;16.03;;;7.63;;
19183;SDS011;9724;51.194;6.856;2023-02-20T02:38:20;16.20;;;7.93;;
19183;SDS011;9724;51.194;6.856;2023-02-20T02:40:51;16.73;;;8.67;;
19183;SDS011;9724;51.194;6.856;2023-02-20T02:43:22;15.57;;;7.87;;
19183;SDS011;9724;51.194;6.856;2023-02-20T02:45:54;15.73;;;8.97;;
19183;SDS011;9724;51.194;6.856;2023-02-20T02:48:23;12.83;;;8.13;;
19183;SDS011;9724;51.194;6.856;2023-02-20T02:50:53;17.83;;;8.53;;
19183;SDS011;9724;51.194;6.856;2023-02-20T02:53:25;15.93;;;8.80;;
19183;SDS011;9724;51.194;6.856;2023-02-20T02:55:52;15.17;;;8.47;;
19183;SDS011;9724;51.194;6.856;2023-02-20T02:58:18;15.27;;;8.33;;
19183;SDS011;9724;51.194;6.856;2023-02-20T03:00:45;16.67;;;8.43;;
19183;SDS011;9724;51.194;6.856;2023-02-20T03:03:15;13.63;;;8.57;;
19183;SDS011;9724;51.194;6.856;2023-02-20T03:05:44;16.93;;;8.60;;
19183;SDS011;9724;51.194;6.856;2023-02-20T03:08:15;13.10;;;8.10;;
19183;SDS011;9724;51.194;6.856;2023-02-20T03:10:47;17.27;;;8.73;;
19183;SDS011;9724;51.194;6.856;2023-02-20T03:13:17;15.27;;;7.90;;
19183;SDS011;9724;51.194;6.856;2023-02-20T03:15:44;14.10;;;7.47;;
19183;SDS011;9724;51.194;6.856;2023-02-20T03:18:16;20.97;;;9.33;;
19183;SDS011;9724;51.194;6.856;2023-02-20T03:20:45;17.23;;;9.20;;
19183;SDS011;9724;51.194;6.856;2023-02-20T03:23:14;21.50;;;9.97;;
19183;SDS011;9724;51.194;6.856;2023-02-20T03:25:45;16.60;;;8.87;;
19183;SDS011;9724;51.194;6.856;2023-02-20T03:28:15;20.80;;;9.77;;
19183;SDS011;9724;51.194;6.856;2023-02-20T03:30:44;17.63;;;9.50;;
19183;SDS011;9724;51.194;6.856;2023-02-20T03:33:17;20.90;;;9.60;;
19183;SDS011;9724;51.194;6.856;2023-02-20T03:36:05;20.73;;;9.83;;
19183;SDS011;9724;51.194;6.856;2023-02-20T03:38:54;19.23;;;10.20;;
19183;SDS011;9724;51.194;6.856;2023-02-20T03:41:42;19.87;;;9.43;;
19183;SDS011;9724;51.194;6.856;2023-02-20T03:44:27;19.80;;;9.83;;
19183;SDS011;9724;51.194;6.856;2023-02-20T03:46:55;22.60;;;9.90;;
19183;SDS011;9724;51.194;6.856;2023-02-20T03:49:24;21.30;;;10.20;;
19183;SDS011;9724;51.194;6.856;2023-02-20T03:51:52;21.17;;;9.80;;
19183;SDS011;9724;51.194;6.856;2023-02-20T03:54:19;19.83;;;10.00;;
19183;SDS011;9724;51.194;6.856;2023-02-20T03:56:46;28.57;;;10.70;;
19183;SDS011;9724;51.194;6.856;2023-02-20T03:59:18;19.43;;;9.73;;
19183;SDS011;9724;51.194;6.856;2023-02-20T04:01:47;24.00;;;10.33;;
19183;SDS011;9724;51.194;6.856;2023-02-20T04:04:16;22.10;;;10.37;;
19183;SDS011;9724;51.194;6.856;2023-02-20T04:06:45;18.57;;;9.70;;
19183;SDS011;9724;51.194;6.856;2023-02-20T04:09:13;17.57;;;8.93;;
19183;SDS011;9724;51.194;6.856;2023-02-20T04:11:43;22.73;;;9.97;;
19183;SDS011;9724;51.194;6.856;2023-02-20T04:14:12;19.70;;;9.80;;
19183;SDS011;9724;51.194;6.856;2023-02-20T04:16:41;19.23;;;10.10;;
19183;SDS011;9724;51.194;6.856;2023-02-20T04:19:10;19.20;;;9.70;;
19183;SDS011;9724;51.194;6.856;2023-02-20T04:21:37;21.60;;;10.00;;
19183;SDS011;9724;51.194;6.856;2023-02-20T04:24:07;22.63;;;9.83;;
19183;SDS011;9724;51.194;6.856;2023-02-20T04:26:36;22.60;;;10.40;;
19183;SDS011;9724;51.194;6.856;2023-02-20T04:29:02;18.13;;;10.30;;
19183;SDS011;9724;51.194;6.856;2023-02-20T04:31:29;20.50;;;10.33;;
19183;SDS011;9724;51.194;6.856;2023-02-20T04:33:55;20.73;;;10.00;;
19183;SDS011;9724;51.194;6.856;2023-02-20T04:36:22;19.60;;;10.10;;
19183;SDS011;9724;51.194;6.856;2023-02-20T04:38:48;23.03;;;10.60;;
19183;SDS011;9724;51.194;6.856;2023-02-20T04:41:15;19.27;;;10.10;;
19183;SDS011;9724;51.194;6.856;2023-02-20T04:43:41;20.60;;;10.10;;
19183;SDS011;9724;51.194;6.856;2023-02-20T04:46:07;20.60;;;9.93;;
19183;SDS011;9724;51.194;6.856;2023-02-20T04:48:34;22.97;;;10.33;;
19183;SDS011;9724;51.194;6.856;2023-02-20T04:51:00;20.77;;;9.63;;
19183;SDS011;9724;51.194;6.856;2023-02-20T04:53:28;22.87;;;9.87;;
19183;SDS011;9724;51.194;6.856;2023-02-20T04:55:54;23.07;;;9.63;;
19183;SDS011;9724;51.194;6.856;2023-02-20T04:58:20;20.53;;;10.20;;
19183;SDS011;9724;51.194;6.856;2023-02-20T05:00:47;23.73;;;10.50;;
19183;SDS011;9724;51.194;6.856;2023-02-20T05:03:13;17.83;;;9.67;;
19183;SDS011;9724;51.194;6.856;2023-02-20T05:05:39;18.67;;;9.83;;
19183;SDS011;9724;51.194;6.856;2023-02-20T05:08:06;18.83;;;9.87;;
19183;SDS011;9724;51.194;6.856;2023-02-20T05:10:33;22.23;;;10.77;;
19183;SDS011;9724;51.194;6.856;2023-02-20T05:13:00;18.67;;;10.20;;
19183;SDS011;9724;51.194;6.856;2023-02-20T05:15:27;27.07;;;11.33;;
19183;SDS011;9724;51.194;6.856;2023-02-20T05:17:54;24.13;;;10.97;;
19183;SDS011;9724;51.194;6.856;2023-02-20T05:20:20;21.00;;;10.73;;
19183;SDS011;9724;51.194;6.856;2023-02-20T05:23:08;16.80;;;10.17;;
19183;SDS011;9724;51.194;6.856;2023-02-20T05:25:34;16.10;;;9.63;;
19183;SDS011;9724;51.194;6.856;2023-02-20T05:28:00;19.87;;;10.47;;
19183;SDS011;9724;51.194;6.856;2023-02-20T05:30:26;20.00;;;10.00;;
19183;SDS011;9724;51.194;6.856;2023-02-20T05:32:52;19.43;;;9.77;;
19183;SDS011;9724;51.194;6.856;2023-02-20T05:35:18;15.07;;;9.00;;
19183;SDS011;9724;51.194;6.856;2023-02-20T05:37:45;22.10;;;9.87;;
19183;SDS011;9724;51.194;6.856;2023-02-20T05:40:11;24.17;;;10.03;;
19183;SDS011;9724;51.194;6.856;2023-02-20T05:42:38;27.70;;;9.73;;
19183;SDS011;9724;51.194;6.856;2023-02-20T05:45:06;21.63;;;9.50;;
19183;SDS011;9724;51.194;6.856;2023-02-20T05:47:34;23.33;;;10.17;;
19183;SDS011;9724;51.194;6.856;2023-02-20T05:50:01;21.63;;;9.57;;
19183;SDS011;9724;51.194;6.856;2023-02-20T05:52:28;21.23;;;9.93;;
19183;SDS011;9724;51.194;6.856;2023-02-20T05:54:54;20.40;;;9.43;;
19183;SDS011;9724;51.194;6.856;2023-02-20T05:57:21;20.73;;;9.80;;
19183;SDS011;9724;51.194;6.856;2023-02-20T05:59:47;18.17;;;8.70;;
19183;SDS011;9724;51.194;6.856;2023-02-20T06:02:13;15.20;;;9.20;;
19183;SDS011;9724;51.194;6.856;2023-02-20T06:04:39;18.13;;;9.63;;
19183;SDS011;9724;51.194;6.856;2023-02-20T06:07:06;17.70;;;8.70;;
19183;SDS011;9724;51.194;6.856;2023-02-20T06:09:34;17.50;;;7.93;;
19183;SDS011;9724;51.194;6.856;2023-02-20T06:12:00;14.13;;;7.83;;
19183;SDS011;9724;51.194;6.856;2023-02-20T06:14:27;22.40;;;8.40;;
19183;SDS011;9724;51.194;6.856;2023-02-20T06:16:55;16.00;;;7.00;;
19183;SDS011;9724;51.194;6.856;2023-02-20T06:19:22;24.57;;;7.40;;
19183;SDS011;9724;51.194;6.856;2023-02-20T06:21:49;18.97;;;7.30;;
19183;SDS011;9724;51.194;6.856;2023-02-20T06:24:16;22.60;;;6.63;;
19183;SDS011;9724;51.194;6.856;2023-02-20T06:26:43;14.57;;;6.63;;
19183;SDS011;9724;51.194;6.856;2023-02-20T06:29:09;24.13;;;6.77;;
19183;SDS011;9724;51.194;6.856;2023-02-20T06:31:36;18.90;;;6.70;;
19183;SDS011;9724;51.194;6.856;2023-02-20T06:34:03;16.13;;;5.67;;
19183;SDS011;9724;51.194;6.856;2023-02-20T06:36:30;13.77;;;5.70;;
19183;SDS011;9724;51.194;6.856;2023-02-20T06:38:58;17.77;;;7.50;;
19183;SDS011;9724;51.194;6.856;2023-02-20T06:41:24;14.30;;;5.43;;
19183;SDS011;9724;51.194;6.856;2023-02-20T06:43:51;10.77;;;5.33;;
19183;SDS011;9724;51.194;6.856;2023-02-20T06:46:17;17.53;;;5.87;;
19183;SDS011;9724;51.194;6.856;2023-02-20T06:48:44;16.63;;;6.27;;
19183;SDS011;9724;51.194;6.856;2023-02-20T06:51:11;15.83;;;6.30;;
19183;SDS011;9724;51.194;6.856;2023-02-20T06:53:38;13.70;;;6.10;;
19183;SDS011;9724;51.194;6.856;2023-02-20T06:56:07;17.60;;;7.63;;
19183;SDS011;9724;51.194;6.856;2023-02-20T06:58:34;23.00;;;7.67;;
19183;SDS011;9724;51.194;6.856;2023-02-20T07:01:00;18.80;;;7.63;;
19183;SDS011;9724;51.194;6.856;2023-02-20T07:03:26;22.87;;;7.77;;
19183;SDS011;9724;51.194;6.856;2023-02-20T07:05:53;13.17;;;7.37;;
19183;SDS011;9724;51.194;6.856;2023-02-20T07:08:19;21.57;;;9.63;;
19183;SDS011;9724;51.194;6.856;2023-02-20T07:10:45;18.13;;;8.97;;
19183;SDS011;9724;51.194;6.856;2023-02-20T07:13:12;18.27;;;10.20;;
19183;SDS011;9724;51.194;6.856;2023-02-20T07:15:38;20.93;;;10.30;;
19183;SDS011;9724;51.194;6.856;2023-02-20T07:18:04;20.23;;;10.37;;
19183;SDS011;9724;51.194;6.856;2023-02-20T07:20:30;22.73;;;10.20;;
19183;SDS011;9724;51.194;6.856;2023-02-20T07:22:57;22.43;;;10.13;;
19183;SDS011;9724;51.194;6.856;2023-02-20T07:25:23;23.07;;;11.87;;
19183;SDS011;9724;51.194;6.856;2023-02-20T07:27:49;21.17;;;11.67;;
19183;SDS011;9724;51.194;6.856;2023-02-20T07:30:16;25.10;;;11.33;;
19183;SDS011;9724;51.194;6.856;2023-02-20T07:32:42;21.90;;;11.10;;
19183;SDS011;9724;51.194;6.856;2023-02-20T07:35:08;27.43;;;11.17;;
19183;SDS011;9724;51.194;6.856;2023-02-20T07:37:34;22.60;;;10.90;;
19183;SDS011;9724;51.194;6.856;2023-02-20T07:40:01;21.27;;;11.87;;
19183;SDS011;9724;51.194;6.856;2023-02-20T07:42:28;27.27;;;12.17;;
19183;SDS011;9724;51.194;6.856;2023-02-20T07:44:54;22.43;;;11.30;;
19183;SDS011;9724;51.194;6.856;2023-02-20T07:47:20;22.17;;;11.47;;
19183;SDS011;9724;51.194;6.856;2023-02-20T07:49:46;24.43;;;11.23;;
19183;SDS011;9724;51.194;6.856;2023-02-20T07:52:13;24.40;;;11.23;;
19183;SDS011;9724;51.194;6.856;2023-02-20T07:54:39;23.90;;;11.43;;
19183;SDS011;9724;51.194;6.856;2023-02-20T07:57:06;24.13;;;11.27;;
19183;SDS011;9724;51.194;6.856;2023-02-20T07:59:32;21.27;;;12.00;;
19183;SDS011;9724;51.194;6.856;2023-02-20T08:01:58;18.60;;;11.03;;
19183;SDS011;9724;51.194;6.856;2023-02-20T08:04:24;27.23;;;12.10;;
19183;SDS011;9724;51.194;6.856;2023-02-20T08:06:51;21.53;;;11.00;;
19183;SDS011;9724;51.194;6.856;2023-02-20T08:09:17;24.27;;;10.73;;
19183;SDS011;9724;51.194;6.856;2023-02-20T08:11:44;24.73;;;12.00;;
19183;SDS011;9724;51.194;6.856;2023-02-20T08:14:11;23.03;;;11.97;;
19183;SDS011;9724;51.194;6.856;2023-02-20T08:16:38;27.67;;;11.57;;
19183;SDS011;9724;51.194;6.856;2023-02-20T08:19:04;23.50;;;11.37;;
19183;SDS011;9724;51.194;6.856;2023-02-20T08:21:31;23.90;;;11.70;;
19183;SDS011;9724;51.194;6.856;2023-02-20T08:23:57;21.27;;;11.53;;
19183;SDS011;9724;51.194;6.856;2023-02-20T08:26:23;22.07;;;11.80;;
19183;SDS011;9724;51.194;6.856;2023-02-20T08:28:50;22.40;;;12.20;;
19183;SDS011;9724;51.194;6.856;2023-02-20T08:31:17;23.60;;;12.07;;
19183;SDS011;9724;51.194;6.856;2023-02-20T08:33:57;25.30;;;11.93;;
19183;SDS011;9724;51.194;6.856;2023-02-20T08:36:23;22.90;;;12.00;;
19183;SDS011;9724;51.194;6.856;2023-02-20T08:38:49;25.93;;;12.33;;
19183;SDS011;9724;51.194;6.856;2023-02-20T08:41:15;25.87;;;12.77;;
19183;SDS011;9724;51.194;6.856;2023-02-20T08:43:42;24.87;;;12.00;;
19183;SDS011;9724;51.194;6.856;2023-02-20T08:46:09;24.17;;;11.70;;
19183;SDS011;9724;51.194;6.856;2023-02-20T08:48:36;22.03;;;12.60;;
19183;SDS011;9724;51.194;6.856;2023-02-20T08:51:02;27.80;;;12.83;;
19183;SDS011;9724;51.194;6.856;2023-02-20T08:53:29;24.67;;;11.93;;
19183;SDS011;9724;51.194;6.856;2023-02-20T08:55:56;24.50;;;12.07;;
19183;SDS011;9724;51.194;6.856;2023-02-20T08:58:22;20.23;;;11.27;;
19183;SDS011;9724;51.194;6.856;2023-02-20T09:00:49;25.60;;;11.57;;
19183;SDS011;9724;51.194;6.856;2023-02-20T09:03:16;25.13;;;11.30;;
19183;SDS011;9724;51.194;6.856;2023-02-20T09:05:43;20.53;;;10.43;;
19183;SDS011;9724;51.194;6.856;2023-02-20T09:08:09;17.97;;;10.97;;
19183;SDS011;9724;51.194;6.856;2023-02-20T09:10:35;20.30;;;11.13;;
19183;SDS011;9724;51.194;6.856;2023-02-20T09:13:02;23.67;;;10.83;;
19183;SDS011;9724;51.194;6.856;2023-02-20T09:15:28;22.67;;;11.20;;
19183;SDS011;9724;51.194;6.856;2023-02-20T09:17:56;22.33;;;11.17;;
19183;SDS011;9724;51.194;6.856;2023-02-20T09:20:22;20.17;;;10.57;;
19183;SDS011;9724;51.194;6.856;2023-02-20T09:22:49;22.30;;;11.03;;
19183;SDS011;9724;51.194;6.856;2023-02-20T09:25:16;22.30;;;10.57;;
19183;SDS011;9724;51.194;6.856;2023-02-20T09:27:43;21.47;;;10.63;;
19183;SDS011;9724;51.194;6.856;2023-02-20T09:30:09;18.20;;;10.17;;
19183;SDS011;9724;51.194;6.856;2023-02-20T09:32:41;20.77;;;9.90;;
19183;SDS011;9724;51.194;6.856;2023-02-20T09:35:08;24.50;;;10.70;;
19183;SDS011;9724;51.194;6.856;2023-02-20T09:37:35;20.50;;;10.60;;
19183;SDS011;9724;51.194;6.856;2023-02-20T09:40:02;24.03;;;11.10;;
19183;SDS011;9724;51.194;6.856;2023-02-20T09:42:30;23.70;;;10.70;;
19183;SDS011;9724;51.194;6.856;2023-02-20T09:45:01;22.57;;;9.90;;
19183;SDS011;9724;51.194;6.856;2023-02-20T09:47:35;23.83;;;10.07;;
19183;SDS011;9724;51.194;6.856;2023-02-20T09:50:10;21.40;;;10.40;;
19183;SDS011;9724;51.194;6.856;2023-02-20T09:52:40;19.07;;;9.63;;
19183;SDS011;9724;51.194;6.856;2023-02-20T09:55:11;20.20;;;9.97;;
19183;SDS011;9724;51.194;6.856;2023-02-20T09:57:37;20.80;;;9.63;;
19183;SDS011;9724;51.194;6.856;2023-02-20T10:00:05;20.57;;;9.90;;
19183;SDS011;9724;51.194;6.856;2023-02-20T10:02:35;20.07;;;9.93;;
19183;SDS011;9724;51.194;6.856;2023-02-20T10:05:04;22.07;;;10.03;;
19183;SDS011;9724;51.194;6.856;2023-02-20T10:07:35;18.93;;;9.70;;
19183;SDS011;9724;51.194;6.856;2023-02-20T10:10:09;20.43;;;10.23;;
19183;SDS011;9724;51.194;6.856;2023-02-20T10:12:45;23.67;;;9.97;;
19183;SDS011;9724;51.194;6.856;2023-02-20T10:15:20;22.47;;;10.37;;
19183;SDS011;9724;51.194;6.856;2023-02-20T10:17:49;24.97;;;10.37;;
19183;SDS011;9724;51.194;6.856;2023-02-20T10:20:22;20.30;;;10.43;;
19183;SDS011;9724;51.194;6.856;2023-02-20T10:22:52;25.53;;;10.97;;
19183;SDS011;9724;51.194;6.856;2023-02-20T10:25:23;22.20;;;10.27;;
19183;SDS011;9724;51.194;6.856;2023-02-20T10:27:52;19.00;;;10.40;;
19183;SDS011;9724;51.194;6.856;2023-02-20T10:30:22;21.87;;;10.20;;
19183;SDS011;9724;51.194;6.856;2023-02-20T10:32:51;22.10;;;9.77;;
19183;SDS011;9724;51.194;6.856;2023-02-20T10:35:22;20.40;;;10.67;;
19183;SDS011;9724;51.194;6.856;2023-02-20T10:37:51;24.80;;;10.87;;
19183;SDS011;9724;51.194;6.856;2023-02-20T10:40:20;23.20;;;10.30;;
19183;SDS011;9724;51.194;6.856;2023-02-20T10:42:51;18.90;;;10.23;;
19183;SDS011;9724;51.194;6.856;2023-02-20T10:45:21;19.53;;;10.37;;
19183;SDS011;9724;51.194;6.856;2023-02-20T10:47:53;19.73;;;9.80;;
19183;SDS011;9724;51.194;6.856;2023-02-20T10:50:24;21.33;;;10.93;;
19183;SDS011;9724;51.194;6.856;2023-02-20T10:52:56;21.20;;;9.80;;
19183;SDS011;9724;51.194;6.856;2023-02-20T10:55:26;21.27;;;10.37;;
19183;SDS011;9724;51.194;6.856;2023-02-20T10:57:55;20.17;;;9.97;;
19183;SDS011;9724;51.194;6.856;2023-02-20T11:00:24;19.73;;;10.20;;
19183;SDS011;9724;51.194;6.856;2023-02-20T11:02:53;21.70;;;9.87;;
19183;SDS011;9724;51.194;6.856;2023-02-20T11:05:22;22.50;;;10.03;;
19183;SDS011;9724;51.194;6.856;2023-02-20T11:07:50;21.37;;;9.90;;
19183;SDS011;9724;51.194;6.856;2023-02-20T11:10:17;14.20;;;8.80;;
19183;SDS011;9724;51.194;6.856;2023-02-20T11:12:45;18.93;;;9.33;;
19183;SDS011;9724;51.194;6.856;2023-02-20T11:15:14;19.80;;;9.83;;
19183;SDS011;9724;51.194;6.856;2023-02-20T11:17:41;20.43;;;9.57;;
19183;SDS011;9724;51.194;6.856;2023-02-20T11:23:05;19.73;;;9.20;;
19183;SDS011;9724;51.194;6.856;2023-02-20T11:25:32;20.50;;;9.70;;
19183;SDS011;9724;51.194;6.856;2023-02-20T11:28:06;19.40;;;10.00;;
19183;SDS011;9724;51.194;6.856;2023-02-20T11:30:34;19.10;;;9.57;;
19183;SDS011;9724;51.194;6.856;2023-02-20T11:33:03;15.83;;;9.00;;
19183;SDS011;9724;51.194;6.856;2023-02-20T11:35:31;16.17;;;8.60;;
19183;SDS011;9724;51.194;6.856;2023-02-20T11:38:15;16.37;;;9.40;;
19183;SDS011;9724;51.194;6.856;2023-02-20T11:41:00;19.60;;;9.20;;
19183;SDS011;9724;51.194;6.856;2023-02-20T11:43:42;20.67;;;9.23;;
19183;SDS011;9724;51.194;6.856;2023-02-20T11:46:26;15.37;;;8.37;;
19183;SDS011;9724;51.194;6.856;2023-02-20T11:48:59;20.73;;;9.50;;
19183;SDS011;9724;51.194;6.856;2023-02-20T11:51:30;16.23;;;8.77;;
19183;SDS011;9724;51.194;6.856;2023-02-20T11:54:14;17.13;;;8.87;;
19183;SDS011;9724;51.194;6.856;2023-02-20T11:56:54;19.73;;;9.87;;
19183;SDS011;9724;51.194;6.856;2023-02-20T11:59:26;17.47;;;8.97;;
19183;SDS011;9724;51.194;6.856;2023-02-20T12:02:10;22.53;;;9.80;;
19183;SDS011;9724;51.194;6.856;2023-02-20T12:04:59;16.93;;;9.57;;
19183;SDS011;9724;51.194;6.856;2023-02-20T12:07:29;22.77;;;9.87;;
19183;SDS011;9724;51.194;6.856;2023-02-20T12:10:00;20.97;;;9.77;;
19183;SDS011;9724;51.194;6.856;2023-02-20T12:12:29;19.10;;;9.93;;
19183;SDS011;9724;51.194;6.856;2023-02-20T12:14:58;17.60;;;9.27;;
19183;SDS011;9724;51.194;6.856;2023-02-20T12:17:25;21.10;;;10.00;;
19183;SDS011;9724;51.194;6.856;2023-02-20T12:19:57;18.17;;;9.97;;
19183;SDS011;9724;51.194;6.856;2023-02-20T12:22:28;21.57;;;9.67;;
19183;SDS011;9724;51.194;6.856;2023-02-20T12:25:02;21.27;;;9.97;;
19183;SDS011;9724;51.194;6.856;2023-02-20T12:30:33;20.80;;;9.83;;
19183;SDS011;9724;51.194;6.856;2023-02-20T12:33:10;20.47;;;10.43;;
19183;SDS011;9724;51.194;6.856;2023-02-20T12:35:49;24.77;;;10.57;;
19183;SDS011;9724;51.194;6.856;2023-02-20T12:38:26;20.03;;;9.90;;
19183;SDS011;9724;51.194;6.856;2023-02-20T12:41:06;20.50;;;10.37;;
19183;SDS011;9724;51.194;6.856;2023-02-20T12:43:42;19.87;;;9.80;;
19183;SDS011;9724;51.194;6.856;2023-02-20T12:46:13;19.73;;;10.00;;
19183;SDS011;9724;51.194;6.856;2023-02-20T12:48:45;18.43;;;9.97;;
19183;SDS011;9724;51.194;6.856;2023-02-20T12:51:20;19.97;;;9.93;;
19183;SDS011;9724;51.194;6.856;2023-02-20T12:53:52;19.77;;;9.97;;
19183;SDS011;9724;51.194;6.856;2023-02-20T12:59:19;19.40;;;9.93;;
19183;SDS011;9724;51.194;6.856;2023-02-20T13:01:50;23.60;;;10.30;;
19183;SDS011;9724;51.194;6.856;2023-02-20T13:04:19;20.93;;;11.00;;
19183;SDS011;9724;51.194;6.856;2023-02-20T13:06:50;19.20;;;10.13;;
19183;SDS011;9724;51.194;6.856;2023-02-20T13:09:22;20.97;;;10.87;;
19183;SDS011;9724;51.194;6.856;2023-02-20T13:11:50;19.00;;;10.47;;
19183;SDS011;9724;51.194;6.856;2023-02-20T13:14:24;20.70;;;10.57;;
19183;SDS011;9724;51.194;6.856;2023-02-20T13:16:55;20.33;;;10.03;;
19183;SDS011;9724;51.194;6.856;2023-02-20T13:19:29;21.67;;;9.73;;
19183;SDS011;9724;51.194;6.856;2023-02-20T13:21:57;22.67;;;9.53;;
19183;SDS011;9724;51.194;6.856;2023-02-20T13:24:28;22.10;;;10.10;;
19183;SDS011;9724;51.194;6.856;2023-02-20T13:26:55;14.57;;;9.30;;
19183;SDS011;9724;51.194;6.856;2023-02-20T13:29:23;19.00;;;9.90;;
19183;SDS011;9724;51.194;6.856;2023-02-20T13:31:52;21.07;;;10.47;;
19183;SDS011;9724;51.194;6.856;2023-02-20T13:34:26;21.17;;;10.67;;
19183;SDS011;9724;51.194;6.856;2023-02-20T13:36:54;19.57;;;10.37;;
19183;SDS011;9724;51.194;6.856;2023-02-20T13:39:34;19.60;;;10.20;;
19183;SDS011;9724;51.194;6.856;2023-02-20T13:42:02;24.70;;;10.40;;
19183;SDS011;9724;51.194;6.856;2023-02-20T13:44:32;23.80;;;11.07;;
19183;SDS011;9724;51.194;6.856;2023-02-20T13:47:19;22.60;;;10.80;;
19183;SDS011;9724;51.194;6.856;2023-02-20T13:49:59;17.97;;;10.20;;
19183;SDS011;9724;51.194;6.856;2023-02-20T13:52:29;23.53;;;11.33;;
19183;SDS011;9724;51.194;6.856;2023-02-20T13:54:56;20.30;;;10.43;;
19183;SDS011;9724;51.194;6.856;2023-02-20T13:57:24;22.87;;;10.90;;
19183;SDS011;9724;51.194;6.856;2023-02-20T13:59:54;23.40;;;11.13;;
19183;SDS011;9724;51.194;6.856;2023-02-20T14:02:20;27.40;;;11.30;;
19183;SDS011;9724;51.194;6.856;2023-02-20T14:04:55;22.77;;;11.50;;
19183;SDS011;9724;51.194;6.856;2023-02-20T14:07:27;21.97;;;11.07;;
19183;SDS011;9724;51.194;6.856;2023-02-20T14:10:03;22.33;;;11.93;;
19183;SDS011;9724;51.194;6.856;2023-02-20T14:12:31;24.63;;;10.43;;
19183;SDS011;9724;51.194;6.856;2023-02-20T14:14:59;22.00;;;11.17;;
19183;SDS011;9724;51.194;6.856;2023-02-20T14:17:28;23.27;;;11.13;;
19183;SDS011;9724;51.194;6.856;2023-02-20T14:19:55;29.43;;;12.13;;
19183;SDS011;9724;51.194;6.856;2023-02-20T14:22:38;21.23;;;11.30;;
19183;SDS011;9724;51.194;6.856;2023-02-20T14:25:14;20.77;;;11.80;;
19183;SDS011;9724;51.194;6.856;2023-02-20T14:27:44;19.10;;;10.67;;
19183;SDS011;9724;51.194;6.856;2023-02-20T14:30:12;23.33;;;10.43;;
19183;SDS011;9724;51.194;6.856;2023-02-20T14:32:41;23.50;;;11.73;;
19183;SDS011;9724;51.194;6.856;2023-02-20T14:35:10;19.30;;;11.20;;
19183;SDS011;9724;51.194;6.856;2023-02-20T14:37:42;19.40;;;11.43;;
19183;SDS011;9724;51.194;6.856;2023-02-20T14:40:12;23.83;;;11.43;;
19183;SDS011;9724;51.194;6.856;2023-02-20T14:42:41;21.73;;;11.63;;
19183;SDS011;9724;51.194;6.856;2023-02-20T14:45:11;24.67;;;10.93;;
19183;SDS011;9724;51.194;6.856;2023-02-20T14:47:48;26.57;;;11.67;;
19183;SDS011;9724;51.194;6.856;2023-02-20T14:50:16;22.53;;;11.27;;
19183;SDS011;9724;51.194;6.856;2023-02-20T14:52:45;20.20;;;11.17;;
19183;SDS011;9724;51.194;6.856;2023-02-20T14:55:14;22.67;;;11.07;;
19183;SDS011;9724;51.194;6.856;2023-02-20T14:57:41;28.67;;;11.33;;
19183;SDS011;9724;51.194;6.856;2023-02-20T15:00:20;24.83;;;11.20;;
19183;SDS011;9724;51.194;6.856;2023-02-20T15:02:49;25.57;;;11.50;;
19183;SDS011;9724;51.194;6.856;2023-02-20T15:05:25;20.00;;;10.30;;
19183;SDS011;9724;51.194;6.856;2023-02-20T15:07:58;18.47;;;10.30;;
19183;SDS011;9724;51.194;6.856;2023-02-20T15:10:32;23.60;;;10.90;;
19183;SDS011;9724;51.194;6.856;2023-02-20T15:13:02;22.70;;;11.40;;
19183;SDS011;9724;51.194;6.856;2023-02-20T15:15:32;19.97;;;10.97;;